sensor_id;sensor_type;location;lat;lon;timestamp;temperature;humidity
63051;SHT30;49136;47.416;19.402;2022-07-25T00:00:52;20.49;65.28
63051;SHT30;49136;47.416;19.402;2022-07-25T00:03:18;20.42;65.37
63051;SHT30;49136;47.416;19.402;2022-07-25T00:05:43;20.35;65.62
63051;SHT30;49136;47.416;19.402;2022-07-25T00:08:09;20.31;65.84
63051;SHT30;49136;47.416;19.402;2022-07-25T00:10:34;20.27;65.71
63051;SHT30;49136;47.416;19.402;2022-07-25T00:12:59;20.25;65.96
63051;SHT30;49136;47.416;19.402;2022-07-25T00:15:25;20.30;65.93
63051;SHT30;49136;47.416;19.402;2022-07-25T00:17:50;20.41;65.36
63051;SHT30;49136;47.416;19.402;2022-07-25T00:20:16;20.40;65.14
63051;SHT30;49136;47.416;19.402;2022-07-25T00:22:41;20.40;65.34
63051;SHT30;49136;47.416;19.402;2022-07-25T00:25:07;20.31;65.68
63051;SHT30;49136;47.416;19.402;2022-07-25T00:27:32;20.23;65.82
63051;SHT30;49136;47.416;19.402;2022-07-25T00:29:58;20.17;65.98
63051;SHT30;49136;47.416;19.402;2022-07-25T00:32:23;20.07;66.18
63051;SHT30;49136;47.416;19.402;2022-07-25T00:34:49;20.06;66.37
63051;SHT30;49136;47.416;19.402;2022-07-25T00:37:14;20.03;66.56
63051;SHT30;49136;47.416;19.402;2022-07-25T00:39:39;19.89;66.73
63051;SHT30;49136;47.416;19.402;2022-07-25T00:42:05;19.86;66.99
63051;SHT30;49136;47.416;19.402;2022-07-25T00:44:31;19.78;67.31
63051;SHT30;49136;47.416;19.402;2022-07-25T00:46:57;19.69;68.65
63051;SHT30;49136;47.416;19.402;2022-07-25T00:49:24;19.54;69.32
63051;SHT30;49136;47.416;19.402;2022-07-25T00:51:51;19.41;70.59
63051;SHT30;49136;47.416;19.402;2022-07-25T00:54:17;19.30;69.92
63051;SHT30;49136;47.416;19.402;2022-07-25T00:56:43;19.33;69.28
63051;SHT30;49136;47.416;19.402;2022-07-25T00:59:09;19.20;71.32
63051;SHT30;49136;47.416;19.402;2022-07-25T01:01:35;19.20;69.50
63051;SHT30;49136;47.416;19.402;2022-07-25T01:04:01;19.24;69.34
63051;SHT30;49136;47.416;19.402;2022-07-25T01:06:27;19.12;70.14
63051;SHT30;49136;47.416;19.402;2022-07-25T01:08:53;19.05;70.71
63051;SHT30;49136;47.416;19.402;2022-07-25T01:11:19;19.24;68.94
63051;SHT30;49136;47.416;19.402;2022-07-25T01:13:45;19.07;69.54
63051;SHT30;49136;47.416;19.402;2022-07-25T01:16:10;19.05;69.90
63051;SHT30;49136;47.416;19.402;2022-07-25T01:18:35;19.02;70.11
63051;SHT30;49136;47.416;19.402;2022-07-25T01:21:01;18.87;70.82
63051;SHT30;49136;47.416;19.402;2022-07-25T01:23:26;18.88;70.90
63051;SHT30;49136;47.416;19.402;2022-07-25T01:25:52;18.81;70.28
63051;SHT30;49136;47.416;19.402;2022-07-25T01:28:18;18.81;70.69
63051;SHT30;49136;47.416;19.402;2022-07-25T01:30:44;18.75;70.72
63051;SHT30;49136;47.416;19.402;2022-07-25T01:33:22;18.67;71.38
63051;SHT30;49136;47.416;19.402;2022-07-25T01:35:48;18.79;70.44
63051;SHT30;49136;47.416;19.402;2022-07-25T01:38:14;18.71;70.93
63051;SHT30;49136;47.416;19.402;2022-07-25T01:40:40;18.71;70.91
63051;SHT30;49136;47.416;19.402;2022-07-25T01:43:06;18.68;71.28
63051;SHT30;49136;47.416;19.402;2022-07-25T01:45:32;18.76;70.63
63051;SHT30;49136;47.416;19.402;2022-07-25T01:47:57;18.89;70.95
63051;SHT30;49136;47.416;19.402;2022-07-25T01:50:23;18.75;71.27
63051;SHT30;49136;47.416;19.402;2022-07-25T01:52:49;18.76;70.82
63051;SHT30;49136;47.416;19.402;2022-07-25T01:55:14;18.71;70.77
63051;SHT30;49136;47.416;19.402;2022-07-25T01:57:40;18.67;70.89
63051;SHT30;49136;47.416;19.402;2022-07-25T02:00:07;18.76;70.62
63051;SHT30;49136;47.416;19.402;2022-07-25T02:02:35;18.61;71.24
63051;SHT30;49136;47.416;19.402;2022-07-25T02:05:00;18.65;71.14
63051;SHT30;49136;47.416;19.402;2022-07-25T02:07:25;18.57;72.01
63051;SHT30;49136;47.416;19.402;2022-07-25T02:09:51;18.53;71.83
63051;SHT30;49136;47.416;19.402;2022-07-25T02:12:16;18.50;71.67
63051;SHT30;49136;47.416;19.402;2022-07-25T02:14:42;18.51;71.62
63051;SHT30;49136;47.416;19.402;2022-07-25T02:17:08;18.47;71.53
63051;SHT30;49136;47.416;19.402;2022-07-25T02:19:34;18.36;72.00
63051;SHT30;49136;47.416;19.402;2022-07-25T02:22:00;18.39;71.83
63051;SHT30;49136;47.416;19.402;2022-07-25T02:24:25;18.46;71.51
63051;SHT30;49136;47.416;19.402;2022-07-25T02:26:51;18.33;72.54
63051;SHT30;49136;47.416;19.402;2022-07-25T02:29:16;18.33;71.78
63051;SHT30;49136;47.416;19.402;2022-07-25T02:31:42;18.25;72.31
63051;SHT30;49136;47.416;19.402;2022-07-25T02:34:08;18.12;72.54
63051;SHT30;49136;47.416;19.402;2022-07-25T02:36:34;18.15;72.38
63051;SHT30;49136;47.416;19.402;2022-07-25T02:38:59;18.16;72.16
63051;SHT30;49136;47.416;19.402;2022-07-25T02:41:24;18.13;72.34
63051;SHT30;49136;47.416;19.402;2022-07-25T02:43:50;18.05;72.98
63051;SHT30;49136;47.416;19.402;2022-07-25T02:46:15;18.04;72.76
63051;SHT30;49136;47.416;19.402;2022-07-25T02:48:40;18.01;72.68
63051;SHT30;49136;47.416;19.402;2022-07-25T02:51:06;17.95;72.93
63051;SHT30;49136;47.416;19.402;2022-07-25T02:53:32;17.91;73.16
63051;SHT30;49136;47.416;19.402;2022-07-25T02:55:57;17.89;72.97
63051;SHT30;49136;47.416;19.402;2022-07-25T02:58:22;17.92;72.79
63051;SHT30;49136;47.416;19.402;2022-07-25T03:00:48;17.87;73.18
63051;SHT30;49136;47.416;19.402;2022-07-25T03:03:13;17.81;73.30
63051;SHT30;49136;47.416;19.402;2022-07-25T03:05:38;17.73;73.65
63051;SHT30;49136;47.416;19.402;2022-07-25T03:08:04;17.74;73.30
63051;SHT30;49136;47.416;19.402;2022-07-25T03:10:30;17.81;73.35
63051;SHT30;49136;47.416;19.402;2022-07-25T03:12:55;17.79;73.41
63051;SHT30;49136;47.416;19.402;2022-07-25T03:15:20;17.95;72.89
63051;SHT30;49136;47.416;19.402;2022-07-25T03:17:46;17.95;72.56
63051;SHT30;49136;47.416;19.402;2022-07-25T03:20:11;17.85;73.09
63051;SHT30;49136;47.416;19.402;2022-07-25T03:22:37;17.92;73.16
63051;SHT30;49136;47.416;19.402;2022-07-25T03:25:03;17.92;73.02
63051;SHT30;49136;47.416;19.402;2022-07-25T03:27:28;17.95;73.17
63051;SHT30;49136;47.416;19.402;2022-07-25T03:29:54;18.02;72.62
63051;SHT30;49136;47.416;19.402;2022-07-25T03:32:19;18.15;71.76
63051;SHT30;49136;47.416;19.402;2022-07-25T03:34:45;18.06;72.29
63051;SHT30;49136;47.416;19.402;2022-07-25T03:37:10;18.15;72.39
63051;SHT30;49136;47.416;19.402;2022-07-25T03:39:36;18.19;71.94
63051;SHT30;49136;47.416;19.402;2022-07-25T03:42:02;18.15;72.16
63051;SHT30;49136;47.416;19.402;2022-07-25T03:44:27;18.10;72.30
63051;SHT30;49136;47.416;19.402;2022-07-25T03:46:53;18.12;72.19
63051;SHT30;49136;47.416;19.402;2022-07-25T03:49:18;18.17;71.86
63051;SHT30;49136;47.416;19.402;2022-07-25T03:51:44;18.16;72.02
63051;SHT30;49136;47.416;19.402;2022-07-25T03:54:09;18.17;72.14
63051;SHT30;49136;47.416;19.402;2022-07-25T03:56:46;18.29;71.89
63051;SHT30;49136;47.416;19.402;2022-07-25T03:59:15;18.32;71.81
63051;SHT30;49136;47.416;19.402;2022-07-25T04:01:41;18.37;71.56
63051;SHT30;49136;47.416;19.402;2022-07-25T04:04:07;18.39;71.45
63051;SHT30;49136;47.416;19.402;2022-07-25T04:06:34;18.43;71.48
63051;SHT30;49136;47.416;19.402;2022-07-25T04:08:59;18.55;71.11
63051;SHT30;49136;47.416;19.402;2022-07-25T04:11:24;18.61;70.86
63051;SHT30;49136;47.416;19.402;2022-07-25T04:13:50;18.55;71.18
63051;SHT30;49136;47.416;19.402;2022-07-25T04:16:16;18.54;72.14
63051;SHT30;49136;47.416;19.402;2022-07-25T04:18:41;18.72;70.91
63051;SHT30;49136;47.416;19.402;2022-07-25T04:21:07;18.88;70.44
63051;SHT30;49136;47.416;19.402;2022-07-25T04:23:33;18.85;71.14
63051;SHT30;49136;47.416;19.402;2022-07-25T04:25:59;18.87;70.38
63051;SHT30;49136;47.416;19.402;2022-07-25T04:28:24;18.98;70.53
63051;SHT30;49136;47.416;19.402;2022-07-25T04:30:52;18.96;71.13
63051;SHT30;49136;47.416;19.402;2022-07-25T04:33:18;19.03;70.46
63051;SHT30;49136;47.416;19.402;2022-07-25T04:35:44;19.15;70.21
63051;SHT30;49136;47.416;19.402;2022-07-25T04:38:09;19.20;69.91
63051;SHT30;49136;47.416;19.402;2022-07-25T04:40:35;19.33;69.36
63051;SHT30;49136;47.416;19.402;2022-07-25T04:43:01;19.55;68.89
63051;SHT30;49136;47.416;19.402;2022-07-25T04:45:26;19.93;67.72
63051;SHT30;49136;47.416;19.402;2022-07-25T04:47:52;20.47;66.31
63051;SHT30;49136;47.416;19.402;2022-07-25T04:50:17;21.01;64.83
63051;SHT30;49136;47.416;19.402;2022-07-25T04:52:43;21.41;63.81
63051;SHT30;49136;47.416;19.402;2022-07-25T04:55:09;21.56;64.99
63051;SHT30;49136;47.416;19.402;2022-07-25T04:57:34;21.62;62.98
63051;SHT30;49136;47.416;19.402;2022-07-25T05:00:01;21.87;63.26
63051;SHT30;49136;47.416;19.402;2022-07-25T05:02:26;21.98;63.17
63051;SHT30;49136;47.416;19.402;2022-07-25T05:04:52;22.01;61.59
63051;SHT30;49136;47.416;19.402;2022-07-25T05:07:17;22.31;62.84
63051;SHT30;49136;47.416;19.402;2022-07-25T05:09:43;22.62;61.93
63051;SHT30;49136;47.416;19.402;2022-07-25T05:12:10;22.55;59.86
63051;SHT30;49136;47.416;19.402;2022-07-25T05:14:35;22.94;62.10
63051;SHT30;49136;47.416;19.402;2022-07-25T05:17:00;22.86;59.17
63051;SHT30;49136;47.416;19.402;2022-07-25T05:19:26;23.46;59.66
63051;SHT30;49136;47.416;19.402;2022-07-25T05:21:51;23.73;58.79
63051;SHT30;49136;47.416;19.402;2022-07-25T05:24:17;23.75;57.55
63051;SHT30;49136;47.416;19.402;2022-07-25T05:26:42;24.39;57.69
63051;SHT30;49136;47.416;19.402;2022-07-25T05:29:08;24.29;57.26
63051;SHT30;49136;47.416;19.402;2022-07-25T05:31:34;23.90;56.40
63051;SHT30;49136;47.416;19.402;2022-07-25T05:34:00;24.37;56.26
63051;SHT30;49136;47.416;19.402;2022-07-25T05:36:25;24.50;56.18
63051;SHT30;49136;47.416;19.402;2022-07-25T05:38:50;24.78;56.45
63051;SHT30;49136;47.416;19.402;2022-07-25T05:41:16;24.39;55.37
63051;SHT30;49136;47.416;19.402;2022-07-25T05:43:41;25.06;54.45
63051;SHT30;49136;47.416;19.402;2022-07-25T05:46:10;24.66;55.58
63051;SHT30;49136;47.416;19.402;2022-07-25T05:48:36;25.16;56.28
63051;SHT30;49136;47.416;19.402;2022-07-25T05:51:01;25.39;53.51
63051;SHT30;49136;47.416;19.402;2022-07-25T05:53:27;25.50;53.12
63051;SHT30;49136;47.416;19.402;2022-07-25T05:55:52;25.44;53.98
63051;SHT30;49136;47.416;19.402;2022-07-25T05:58:18;25.50;54.04
63051;SHT30;49136;47.416;19.402;2022-07-25T06:00:43;26.40;55.61
63051;SHT30;49136;47.416;19.402;2022-07-25T06:03:08;26.75;52.56
63051;SHT30;49136;47.416;19.402;2022-07-25T06:05:34;26.89;53.78
63051;SHT30;49136;47.416;19.402;2022-07-25T06:07:59;26.50;51.34
63051;SHT30;49136;47.416;19.402;2022-07-25T06:10:26;27.03;50.55
63051;SHT30;49136;47.416;19.402;2022-07-25T06:12:51;26.68;50.33
63051;SHT30;49136;47.416;19.402;2022-07-25T06:15:17;26.61;52.45
63051;SHT30;49136;47.416;19.402;2022-07-25T06:17:42;26.84;51.07
63051;SHT30;49136;47.416;19.402;2022-07-25T06:20:08;26.79;50.06
63051;SHT30;49136;47.416;19.402;2022-07-25T06:22:34;25.98;50.21
63051;SHT30;49136;47.416;19.402;2022-07-25T06:25:01;26.29;52.10
63051;SHT30;49136;47.416;19.402;2022-07-25T06:27:27;26.67;49.44
63051;SHT30;49136;47.416;19.402;2022-07-25T06:29:52;26.41;49.68
63051;SHT30;49136;47.416;19.402;2022-07-25T06:32:18;26.30;49.78
63051;SHT30;49136;47.416;19.402;2022-07-25T06:34:43;26.96;49.22
63051;SHT30;49136;47.416;19.402;2022-07-25T06:37:09;26.96;48.21
63051;SHT30;49136;47.416;19.402;2022-07-25T06:39:34;26.50;48.82
63051;SHT30;49136;47.416;19.402;2022-07-25T06:42:01;26.47;48.85
63051;SHT30;49136;47.416;19.402;2022-07-25T06:44:31;26.64;49.99
63051;SHT30;49136;47.416;19.402;2022-07-25T06:46:57;26.44;49.45
63051;SHT30;49136;47.416;19.402;2022-07-25T06:49:22;26.57;48.32
63051;SHT30;49136;47.416;19.402;2022-07-25T06:51:48;26.82;47.79
63051;SHT30;49136;47.416;19.402;2022-07-25T06:54:14;27.36;50.84
63051;SHT30;49136;47.416;19.402;2022-07-25T06:56:39;27.41;47.55
63051;SHT30;49136;47.416;19.402;2022-07-25T06:59:05;27.37;46.76
63051;SHT30;49136;47.416;19.402;2022-07-25T07:01:30;27.17;47.34
63051;SHT30;49136;47.416;19.402;2022-07-25T07:03:57;27.16;47.38
63051;SHT30;49136;47.416;19.402;2022-07-25T07:06:22;27.16;52.92
63051;SHT30;49136;47.416;19.402;2022-07-25T07:08:48;27.57;47.57
63051;SHT30;49136;47.416;19.402;2022-07-25T07:11:14;27.59;48.24
63051;SHT30;49136;47.416;19.402;2022-07-25T07:13:41;27.89;48.70
63051;SHT30;49136;47.416;19.402;2022-07-25T07:16:06;28.13;49.05
63051;SHT30;49136;47.416;19.402;2022-07-25T07:18:32;28.09;46.73
63051;SHT30;49136;47.416;19.402;2022-07-25T07:20:57;28.16;45.56
63051;SHT30;49136;47.416;19.402;2022-07-25T07:23:23;28.16;50.48
63051;SHT30;49136;47.416;19.402;2022-07-25T07:25:49;28.54;47.64
63051;SHT30;49136;47.416;19.402;2022-07-25T07:28:14;28.51;45.65
63051;SHT30;49136;47.416;19.402;2022-07-25T07:30:40;28.02;46.32
63051;SHT30;49136;47.416;19.402;2022-07-25T07:33:05;28.13;46.30
63051;SHT30;49136;47.416;19.402;2022-07-25T07:35:31;28.06;45.55
63051;SHT30;49136;47.416;19.402;2022-07-25T07:37:56;28.06;47.11
63051;SHT30;49136;47.416;19.402;2022-07-25T07:40:22;27.76;45.16
63051;SHT30;49136;47.416;19.402;2022-07-25T07:42:49;27.96;48.26
63051;SHT30;49136;47.416;19.402;2022-07-25T07:45:22;28.31;48.45
63051;SHT30;49136;47.416;19.402;2022-07-25T07:47:50;28.63;47.33
63051;SHT30;49136;47.416;19.402;2022-07-25T07:50:19;28.18;46.50
63051;SHT30;49136;47.416;19.402;2022-07-25T07:52:45;28.38;46.37
63051;SHT30;49136;47.416;19.402;2022-07-25T07:55:11;28.79;45.79
63051;SHT30;49136;47.416;19.402;2022-07-25T07:57:56;28.66;46.11
63051;SHT30;49136;47.416;19.402;2022-07-25T08:00:24;28.63;43.80
63051;SHT30;49136;47.416;19.402;2022-07-25T08:02:53;28.47;44.86
63051;SHT30;49136;47.416;19.402;2022-07-25T08:05:30;28.86;45.34
63051;SHT30;49136;47.416;19.402;2022-07-25T08:07:56;28.28;45.03
63051;SHT30;49136;47.416;19.402;2022-07-25T08:10:24;28.49;46.81
63051;SHT30;49136;47.416;19.402;2022-07-25T08:12:50;29.07;46.32
63051;SHT30;49136;47.416;19.402;2022-07-25T08:15:17;29.44;45.85
63051;SHT30;49136;47.416;19.402;2022-07-25T08:17:43;29.69;45.81
63051;SHT30;49136;47.416;19.402;2022-07-25T08:20:09;29.76;47.30
63051;SHT30;49136;47.416;19.402;2022-07-25T08:22:40;29.80;48.32
63051;SHT30;49136;47.416;19.402;2022-07-25T08:25:07;29.25;44.37
63051;SHT30;49136;47.416;19.402;2022-07-25T08:27:34;28.99;44.38
63051;SHT30;49136;47.416;19.402;2022-07-25T08:29:59;29.06;45.55
63051;SHT30;49136;47.416;19.402;2022-07-25T08:32:28;29.58;45.54
63051;SHT30;49136;47.416;19.402;2022-07-25T08:34:54;29.34;44.98
63051;SHT30;49136;47.416;19.402;2022-07-25T08:37:19;27.89;45.86
63051;SHT30;49136;47.416;19.402;2022-07-25T08:39:45;29.00;46.71
63051;SHT30;49136;47.416;19.402;2022-07-25T08:42:10;29.56;45.17
63051;SHT30;49136;47.416;19.402;2022-07-25T08:44:39;29.96;44.28
63051;SHT30;49136;47.416;19.402;2022-07-25T08:47:07;29.89;45.74
63051;SHT30;49136;47.416;19.402;2022-07-25T08:49:34;30.20;45.06
63051;SHT30;49136;47.416;19.402;2022-07-25T08:52:02;29.84;42.21
63051;SHT30;49136;47.416;19.402;2022-07-25T08:54:30;30.03;44.40
63051;SHT30;49136;47.416;19.402;2022-07-25T08:56:55;30.38;44.95
63051;SHT30;49136;47.416;19.402;2022-07-25T08:59:21;30.52;44.24
63051;SHT30;49136;47.416;19.402;2022-07-25T09:01:46;30.56;46.08
63051;SHT30;49136;47.416;19.402;2022-07-25T09:04:12;30.87;44.86
63051;SHT30;49136;47.416;19.402;2022-07-25T09:06:48;30.95;43.45
63051;SHT30;49136;47.416;19.402;2022-07-25T09:09:13;30.94;42.76
63051;SHT30;49136;47.416;19.402;2022-07-25T09:11:39;30.82;41.47
63051;SHT30;49136;47.416;19.402;2022-07-25T09:14:07;30.22;42.62
63051;SHT30;49136;47.416;19.402;2022-07-25T09:16:36;29.07;42.40
63051;SHT30;49136;47.416;19.402;2022-07-25T09:21:35;30.24;46.86
63051;SHT30;49136;47.416;19.402;2022-07-25T09:24:15;30.53;43.94
63051;SHT30;49136;47.416;19.402;2022-07-25T09:26:44;30.80;41.88
63051;SHT30;49136;47.416;19.402;2022-07-25T09:29:18;31.02;41.55
63051;SHT30;49136;47.416;19.402;2022-07-25T09:31:44;31.25;41.81
63051;SHT30;49136;47.416;19.402;2022-07-25T09:34:10;31.47;41.78
63051;SHT30;49136;47.416;19.402;2022-07-25T09:36:38;31.53;40.93
63051;SHT30;49136;47.416;19.402;2022-07-25T09:39:14;31.63;41.28
63051;SHT30;49136;47.416;19.402;2022-07-25T09:41:40;31.76;41.09
63051;SHT30;49136;47.416;19.402;2022-07-25T09:44:23;31.90;41.58
63051;SHT30;49136;47.416;19.402;2022-07-25T09:46:53;31.47;40.46
63051;SHT30;49136;47.416;19.402;2022-07-25T09:49:19;31.38;42.68
63051;SHT30;49136;47.416;19.402;2022-07-25T09:51:45;31.76;40.50
63051;SHT30;49136;47.416;19.402;2022-07-25T09:54:11;31.92;40.09
63051;SHT30;49136;47.416;19.402;2022-07-25T09:56:37;31.73;41.07
63051;SHT30;49136;47.416;19.402;2022-07-25T09:59:03;31.81;41.35
63051;SHT30;49136;47.416;19.402;2022-07-25T10:01:35;31.45;41.56
63051;SHT30;49136;47.416;19.402;2022-07-25T10:04:20;31.35;42.54
63051;SHT30;49136;47.416;19.402;2022-07-25T10:06:53;31.49;41.15
63051;SHT30;49136;47.416;19.402;2022-07-25T10:09:21;31.90;40.77
63051;SHT30;49136;47.416;19.402;2022-07-25T10:12:07;32.22;39.44
63051;SHT30;49136;47.416;19.402;2022-07-25T10:14:34;32.19;40.43
63051;SHT30;49136;47.416;19.402;2022-07-25T10:17:00;32.37;39.36
63051;SHT30;49136;47.416;19.402;2022-07-25T10:19:45;31.87;39.33
63051;SHT30;49136;47.416;19.402;2022-07-25T10:22:12;31.69;40.44
63051;SHT30;49136;47.416;19.402;2022-07-25T10:24:43;30.88;40.30
63051;SHT30;49136;47.416;19.402;2022-07-25T10:27:10;30.84;40.12
63051;SHT30;49136;47.416;19.402;2022-07-25T10:29:38;30.79;42.06
63051;SHT30;49136;47.416;19.402;2022-07-25T10:32:08;31.25;40.34
63051;SHT30;49136;47.416;19.402;2022-07-25T10:34:34;31.38;41.83
63051;SHT30;49136;47.416;19.402;2022-07-25T10:37:14;31.57;38.54
63051;SHT30;49136;47.416;19.402;2022-07-25T10:39:41;32.07;41.86
63051;SHT30;49136;47.416;19.402;2022-07-25T10:42:12;32.31;39.66
63051;SHT30;49136;47.416;19.402;2022-07-25T10:44:40;32.55;40.14
63051;SHT30;49136;47.416;19.402;2022-07-25T10:47:11;32.59;39.94
63051;SHT30;49136;47.416;19.402;2022-07-25T10:49:41;32.63;39.78
63051;SHT30;49136;47.416;19.402;2022-07-25T10:52:14;32.87;39.77
63051;SHT30;49136;47.416;19.402;2022-07-25T10:54:39;32.67;39.75
63051;SHT30;49136;47.416;19.402;2022-07-25T10:57:12;31.28;37.63
63051;SHT30;49136;47.416;19.402;2022-07-25T10:59:38;31.97;41.32
63051;SHT30;49136;47.416;19.402;2022-07-25T11:02:07;31.74;38.11
63051;SHT30;49136;47.416;19.402;2022-07-25T11:04:34;32.31;38.77
63051;SHT30;49136;47.416;19.402;2022-07-25T11:07:14;32.73;39.36
63051;SHT30;49136;47.416;19.402;2022-07-25T11:09:42;32.81;38.12
63051;SHT30;49136;47.416;19.402;2022-07-25T11:12:12;33.14;37.63
63051;SHT30;49136;47.416;19.402;2022-07-25T11:14:39;32.11;37.05
63051;SHT30;49136;47.416;19.402;2022-07-25T11:17:22;31.43;37.34
63051;SHT30;49136;47.416;19.402;2022-07-25T11:19:59;31.97;37.50
63051;SHT30;49136;47.416;19.402;2022-07-25T11:22:27;32.71;38.87
63051;SHT30;49136;47.416;19.402;2022-07-25T11:24:52;32.80;38.53
63051;SHT30;49136;47.416;19.402;2022-07-25T11:27:26;32.84;38.19
63051;SHT30;49136;47.416;19.402;2022-07-25T11:29:52;32.84;37.88
63051;SHT30;49136;47.416;19.402;2022-07-25T11:32:18;32.37;36.87
63051;SHT30;49136;47.416;19.402;2022-07-25T11:34:49;31.63;36.98
63051;SHT30;49136;47.416;19.402;2022-07-25T11:37:16;32.05;38.29
63051;SHT30;49136;47.416;19.402;2022-07-25T11:39:44;32.94;37.63
63051;SHT30;49136;47.416;19.402;2022-07-25T11:42:13;33.26;36.19
63051;SHT30;49136;47.416;19.402;2022-07-25T11:44:41;33.08;37.39
63051;SHT30;49136;47.416;19.402;2022-07-25T11:47:28;33.29;37.48
63051;SHT30;49136;47.416;19.402;2022-07-25T11:49:56;32.85;37.12
63051;SHT30;49136;47.416;19.402;2022-07-25T11:52:35;33.08;38.51
63051;SHT30;49136;47.416;19.402;2022-07-25T11:55:06;33.74;38.10
63051;SHT30;49136;47.416;19.402;2022-07-25T11:57:38;33.64;35.35
63051;SHT30;49136;47.416;19.402;2022-07-25T12:00:24;32.85;35.16
63051;SHT30;49136;47.416;19.402;2022-07-25T12:02:49;32.52;35.87
63051;SHT30;49136;47.416;19.402;2022-07-25T12:05:17;32.88;40.25
63051;SHT30;49136;47.416;19.402;2022-07-25T12:12:42;34.40;37.17
63051;SHT30;49136;47.416;19.402;2022-07-25T12:15:11;34.78;35.47
63051;SHT30;49136;47.416;19.402;2022-07-25T12:17:38;35.35;36.37
63051;SHT30;49136;47.416;19.402;2022-07-25T12:20:04;35.61;34.09
63051;SHT30;49136;47.416;19.402;2022-07-25T12:22:34;35.76;33.50
63051;SHT30;49136;47.416;19.402;2022-07-25T12:25:00;35.70;34.54
63051;SHT30;49136;47.416;19.402;2022-07-25T12:27:25;35.18;33.98
63051;SHT30;49136;47.416;19.402;2022-07-25T12:29:50;34.59;35.82
63051;SHT30;49136;47.416;19.402;2022-07-25T12:32:16;34.20;35.92
63051;SHT30;49136;47.416;19.402;2022-07-25T12:34:41;34.78;36.53
63051;SHT30;49136;47.416;19.402;2022-07-25T12:37:08;34.85;36.64
63051;SHT30;49136;47.416;19.402;2022-07-25T12:39:34;34.39;35.55
63051;SHT30;49136;47.416;19.402;2022-07-25T12:41:59;34.54;34.56
63051;SHT30;49136;47.416;19.402;2022-07-25T12:44:24;35.15;36.62
63051;SHT30;49136;47.416;19.402;2022-07-25T12:46:50;35.44;34.61
63051;SHT30;49136;47.416;19.402;2022-07-25T12:49:16;35.67;35.01
63051;SHT30;49136;47.416;19.402;2022-07-25T12:51:41;34.63;35.87
63051;SHT30;49136;47.416;19.402;2022-07-25T12:54:07;34.70;37.18
63051;SHT30;49136;47.416;19.402;2022-07-25T12:56:33;34.23;36.22
63051;SHT30;49136;47.416;19.402;2022-07-25T12:58:58;34.43;36.70
63051;SHT30;49136;47.416;19.402;2022-07-25T13:01:23;34.18;36.11
63051;SHT30;49136;47.416;19.402;2022-07-25T13:03:49;33.41;36.30
63051;SHT30;49136;47.416;19.402;2022-07-25T13:06:14;33.74;41.21
63051;SHT30;49136;47.416;19.402;2022-07-25T13:08:40;34.11;37.85
63051;SHT30;49136;47.416;19.402;2022-07-25T13:11:05;35.13;35.54
63051;SHT30;49136;47.416;19.402;2022-07-25T13:13:30;35.60;35.33
63051;SHT30;49136;47.416;19.402;2022-07-25T13:15:57;35.18;33.36
63051;SHT30;49136;47.416;19.402;2022-07-25T13:18:23;34.43;35.60
63051;SHT30;49136;47.416;19.402;2022-07-25T13:20:48;34.85;36.54
63051;SHT30;49136;47.416;19.402;2022-07-25T13:23:13;35.23;35.25
63051;SHT30;49136;47.416;19.402;2022-07-25T13:25:39;34.81;34.91
63051;SHT30;49136;47.416;19.402;2022-07-25T13:28:04;34.36;35.09
63051;SHT30;49136;47.416;19.402;2022-07-25T13:30:30;33.18;34.08
63051;SHT30;49136;47.416;19.402;2022-07-25T13:32:55;33.52;33.93
63051;SHT30;49136;47.416;19.402;2022-07-25T13:35:20;33.85;35.62
63051;SHT30;49136;47.416;19.402;2022-07-25T13:37:46;34.25;34.92
63051;SHT30;49136;47.416;19.402;2022-07-25T13:40:12;34.29;35.02
63051;SHT30;49136;47.416;19.402;2022-07-25T13:42:38;34.80;33.04
63051;SHT30;49136;47.416;19.402;2022-07-25T13:45:04;34.57;31.27
63051;SHT30;49136;47.416;19.402;2022-07-25T13:47:31;34.64;34.79
63051;SHT30;49136;47.416;19.402;2022-07-25T13:49:57;34.96;33.25
63051;SHT30;49136;47.416;19.402;2022-07-25T13:52:22;35.40;32.55
63051;SHT30;49136;47.416;19.402;2022-07-25T13:54:47;35.42;35.36
63051;SHT30;49136;47.416;19.402;2022-07-25T13:57:13;35.37;33.46
63051;SHT30;49136;47.416;19.402;2022-07-25T13:59:38;35.25;31.71
63051;SHT30;49136;47.416;19.402;2022-07-25T14:02:04;35.39;31.45
63051;SHT30;49136;47.416;19.402;2022-07-25T14:04:29;35.13;33.35
63051;SHT30;49136;47.416;19.402;2022-07-25T14:06:55;35.55;31.02
63051;SHT30;49136;47.416;19.402;2022-07-25T14:09:21;35.63;31.90
63051;SHT30;49136;47.416;19.402;2022-07-25T14:11:46;35.50;33.58
63051;SHT30;49136;47.416;19.402;2022-07-25T14:14:12;35.53;29.88
63051;SHT30;49136;47.416;19.402;2022-07-25T14:16:37;35.53;30.00
63051;SHT30;49136;47.416;19.402;2022-07-25T14:19:03;35.46;30.74
63051;SHT30;49136;47.416;19.402;2022-07-25T14:21:29;35.37;31.90
63051;SHT30;49136;47.416;19.402;2022-07-25T14:23:55;35.39;32.74
63051;SHT30;49136;47.416;19.402;2022-07-25T14:26:20;34.68;29.69
63051;SHT30;49136;47.416;19.402;2022-07-25T14:28:46;34.57;32.41
63051;SHT30;49136;47.416;19.402;2022-07-25T14:31:11;34.80;32.76
63051;SHT30;49136;47.416;19.402;2022-07-25T14:33:37;34.76;32.02
63051;SHT30;49136;47.416;19.402;2022-07-25T14:36:11;34.92;31.10
63051;SHT30;49136;47.416;19.402;2022-07-25T14:38:37;33.95;30.23
63051;SHT30;49136;47.416;19.402;2022-07-25T14:41:02;34.43;29.75
63051;SHT30;49136;47.416;19.402;2022-07-25T14:43:28;34.77;29.15
63051;SHT30;49136;47.416;19.402;2022-07-25T14:45:53;34.47;31.04
63051;SHT30;49136;47.416;19.402;2022-07-25T14:48:18;34.05;32.55
63051;SHT30;49136;47.416;19.402;2022-07-25T14:50:44;34.22;31.66
63051;SHT30;49136;47.416;19.402;2022-07-25T14:53:09;34.53;30.33
63051;SHT30;49136;47.416;19.402;2022-07-25T14:55:36;34.85;28.69
63051;SHT30;49136;47.416;19.402;2022-07-25T14:58:01;34.77;32.33
63051;SHT30;49136;47.416;19.402;2022-07-25T15:00:28;34.77;32.40
63051;SHT30;49136;47.416;19.402;2022-07-25T15:02:54;34.72;29.98
63051;SHT30;49136;47.416;19.402;2022-07-25T15:05:19;34.87;29.58
63051;SHT30;49136;47.416;19.402;2022-07-25T15:07:44;34.81;31.02
63051;SHT30;49136;47.416;19.402;2022-07-25T15:10:11;34.59;31.24
63051;SHT30;49136;47.416;19.402;2022-07-25T15:12:36;34.54;30.82
63051;SHT30;49136;47.416;19.402;2022-07-25T15:15:02;34.40;32.29
63051;SHT30;49136;47.416;19.402;2022-07-25T15:17:28;34.44;29.31
63051;SHT30;49136;47.416;19.402;2022-07-25T15:19:53;34.47;29.93